createdAt,value
2022-10-25T00:00:20.099Z,17.65
2022-10-25T00:02:25.737Z,15.18
2022-10-25T00:04:30.045Z,16.35
2022-10-25T00:06:32.320Z,17.23
2022-10-25T00:08:34.384Z,16.60
2022-10-25T00:10:36.558Z,15.82
2022-10-25T00:12:45.925Z,13.00
2022-10-25T00:14:47.911Z,12.90
2022-10-25T00:16:49.954Z,13.55
2022-10-25T00:18:52.914Z,16.40
2022-10-25T00:20:55.552Z,14.73
2022-10-25T00:22:57.722Z,14.43
2022-10-25T00:24:59.739Z,14.70
2022-10-25T00:27:01.866Z,15.07
2022-10-25T00:29:04.204Z,15.18
2022-10-25T00:31:09.516Z,15.07
2022-10-25T00:33:12.666Z,10.35
2022-10-25T00:35:14.680Z,12.50
2022-10-25T00:37:16.742Z,13.38
2022-10-25T00:39:18.989Z,13.13
2022-10-25T00:41:25.483Z,13.60
2022-10-25T00:43:37.572Z,12.20
2022-10-25T00:45:39.819Z,12.10
2022-10-25T00:47:49.116Z,13.40
2022-10-25T00:50:03.273Z,11.48
2022-10-25T00:52:08.330Z,14.43
2022-10-25T00:54:13.406Z,16.60
2022-10-25T00:56:22.567Z,19.73
2022-10-25T00:58:28.351Z,17.92
2022-10-25T01:00:30.395Z,16.85
2022-10-25T01:02:34.290Z,14.35
2022-10-25T01:04:36.403Z,14.85
2022-10-25T01:06:43.740Z,17.35
2022-10-25T01:08:50.616Z,14.90
2022-10-25T01:10:53.198Z,16.42
2022-10-25T01:12:56.212Z,13.13
2022-10-25T01:14:58.650Z,10.80
2022-10-25T01:17:18.765Z,14.43
2022-10-25T01:19:48.273Z,12.85
2022-10-25T01:21:56.994Z,14.85
2022-10-25T01:23:58.904Z,12.77
2022-10-25T01:26:38.308Z,17.17
2022-10-25T01:28:58.250Z,14.52
2022-10-25T01:31:19.172Z,16.75
2022-10-25T01:33:43.953Z,17.45
2022-10-25T01:36:16.092Z,12.75
2022-10-25T01:38:37.289Z,14.43
2022-10-25T01:40:53.464Z,12.98
2022-10-25T01:43:04.534Z,19.10
2022-10-25T01:45:09.617Z,18.65
2022-10-25T01:47:20.665Z,16.08
2022-10-25T01:49:34.851Z,13.02
2022-10-25T01:51:37.529Z,13.98
2022-10-25T01:53:50.652Z,14.52
2022-10-25T01:55:57.758Z,13.80
2022-10-25T01:58:18.522Z,12.48
2022-10-25T02:00:23.049Z,20.80
2022-10-25T02:02:52.845Z,19.00
2022-10-25T02:05:10.626Z,19.88
2022-10-25T02:07:48.193Z,16.42
2022-10-25T02:09:59.182Z,13.50
2022-10-25T02:12:04.884Z,13.30
2022-10-25T02:14:15.581Z,11.20
2022-10-25T02:16:25.598Z,12.93
2022-10-25T02:20:36.071Z,14.18
2022-10-25T02:22:39.750Z,11.43
2022-10-25T02:24:45.992Z,14.10
2022-10-25T02:26:56.580Z,11.52
2022-10-25T02:29:00.632Z,13.98
2022-10-25T02:31:03.818Z,14.77
2022-10-25T02:33:06.968Z,13.02
2022-10-25T02:35:15.809Z,15.38
2022-10-25T02:37:20.644Z,14.60
2022-10-25T02:39:27.679Z,16.95
2022-10-25T02:41:34.085Z,13.43
2022-10-25T02:43:36.735Z,12.75
2022-10-25T02:45:38.796Z,17.80
2022-10-25T02:47:40.807Z,16.13
2022-10-25T02:49:43.456Z,17.17
2022-10-25T02:51:48.566Z,15.27
2022-10-25T02:53:50.980Z,21.15
2022-10-25T02:56:05.213Z,21.70
2022-10-25T02:58:09.966Z,18.02
2022-10-25T03:02:19.731Z,18.20
2022-10-25T03:04:22.095Z,17.58
2022-10-25T03:06:24.370Z,17.60
2022-10-25T03:10:37.315Z,15.70
2022-10-25T03:12:39.586Z,15.07
2022-10-25T03:14:41.816Z,14.50
2022-10-25T03:16:44.306Z,19.27
2022-10-25T03:18:46.390Z,11.45
2022-10-25T03:20:48.755Z,11.93
2022-10-25T03:23:53.810Z,13.32
2022-10-25T03:26:00.720Z,17.05
2022-10-25T03:28:03.162Z,16.08
2022-10-25T03:30:05.635Z,15.13
2022-10-25T03:32:08.182Z,15.55
2022-10-25T03:34:10.350Z,14.32
2022-10-25T03:36:13.502Z,12.43
2022-10-25T03:38:15.458Z,13.65
2022-10-25T03:40:21.383Z,16.17
2022-10-25T03:42:23.781Z,12.35
2022-10-25T03:44:25.713Z,20.30
2022-10-25T03:46:27.826Z,18.40
2022-10-25T03:48:30.045Z,14.45
2022-10-25T03:50:36.252Z,14.05
2022-10-25T03:52:38.641Z,15.88
2022-10-25T03:54:44.201Z,14.20
2022-10-25T03:56:46.315Z,13.35
2022-10-25T03:58:48.421Z,17.75
2022-10-25T04:00:50.663Z,19.77
2022-10-25T04:03:01.734Z,16.38
2022-10-25T04:05:04.934Z,15.55
2022-10-25T04:07:07.089Z,16.38
2022-10-25T04:09:09.637Z,23.88
2022-10-25T04:11:11.582Z,65.55
2022-10-25T04:13:13.792Z,137.23
2022-10-25T04:15:16.223Z,146.00
2022-10-25T04:17:18.371Z,134.13
2022-10-25T04:19:20.395Z,81.85
2022-10-25T04:21:23.253Z,62.75
2022-10-25T04:23:25.415Z,74.93
2022-10-25T04:25:28.933Z,97.57
2022-10-25T04:27:31.011Z,124.47
2022-10-25T04:29:33.102Z,144.60
2022-10-25T04:31:35.322Z,157.40
2022-10-25T04:33:42.217Z,107.82
2022-10-25T04:35:54.206Z,78.63
2022-10-25T04:37:58.254Z,52.95
2022-10-25T04:40:00.574Z,38.72
2022-10-25T04:42:02.977Z,36.13
2022-10-25T04:44:05.424Z,44.95
2022-10-25T04:46:07.492Z,38.50
2022-10-25T04:48:09.601Z,31.83
2022-10-25T04:50:11.463Z,41.08
2022-10-25T04:52:13.608Z,38.38
2022-10-25T04:54:15.926Z,42.92
2022-10-25T04:56:18.109Z,47.00
2022-10-25T04:58:20.138Z,60.38
2022-10-25T05:00:22.405Z,50.95
2022-10-25T05:02:25.240Z,50.53
2022-10-25T05:04:27.767Z,46.08
2022-10-25T05:06:31.979Z,51.85
2022-10-25T05:08:36.334Z,52.67
2022-10-25T05:10:39.533Z,54.42
2022-10-25T05:12:41.574Z,60.50
2022-10-25T05:14:44.545Z,53.45
2022-10-25T05:16:46.677Z,39.15
2022-10-25T05:18:50.481Z,32.70
2022-10-25T05:20:57.048Z,32.22
2022-10-25T05:22:59.260Z,28.55
2022-10-25T05:25:04.144Z,28.52
2022-10-25T05:27:06.453Z,27.65
2022-10-25T05:29:11.971Z,35.75
2022-10-25T05:31:25.357Z,42.25
2022-10-25T05:33:27.640Z,58.72
2022-10-25T05:35:29.736Z,53.95
2022-10-25T05:37:34.033Z,45.65
2022-10-25T05:39:39.215Z,43.90
2022-10-25T05:41:41.393Z,42.13
2022-10-25T05:43:44.479Z,30.55
2022-10-25T05:45:46.488Z,24.73
2022-10-25T05:47:48.614Z,23.63
2022-10-25T05:49:50.672Z,21.10
2022-10-25T05:51:52.710Z,20.85
2022-10-25T05:53:57.031Z,23.77
2022-10-25T05:56:00.871Z,23.70
2022-10-25T05:58:04.070Z,23.98
2022-10-25T06:00:06.962Z,20.88
2022-10-25T06:02:10.069Z,23.75
2022-10-25T06:04:13.531Z,26.83
2022-10-25T06:06:15.976Z,31.60
2022-10-25T06:08:18.212Z,33.67
2022-10-25T06:10:45.424Z,30.85
2022-10-25T06:12:47.859Z,41.60
2022-10-25T06:14:49.982Z,44.83
2022-10-25T06:16:52.058Z,43.13
2022-10-25T06:18:55.088Z,50.85
2022-10-25T06:21:00.803Z,45.15
2022-10-25T06:23:02.985Z,45.05
2022-10-25T06:25:05.766Z,36.92
2022-10-25T06:27:07.847Z,40.25
2022-10-25T06:29:10.142Z,36.58
2022-10-25T06:31:15.556Z,36.90
2022-10-25T06:33:17.567Z,31.38
2022-10-25T06:35:19.568Z,38.35
2022-10-25T06:37:21.702Z,37.35
2022-10-25T06:39:23.755Z,45.72
2022-10-25T06:41:29.146Z,43.88
2022-10-25T06:43:32.893Z,45.28
2022-10-25T06:45:36.181Z,43.53
2022-10-25T06:47:41.034Z,41.17
2022-10-25T06:49:43.110Z,40.45
2022-10-25T06:51:45.624Z,38.20
2022-10-25T06:53:47.962Z,36.13
2022-10-25T06:55:49.973Z,38.95
2022-10-25T06:57:51.683Z,32.45
2022-10-25T06:59:55.970Z,35.65
2022-10-25T07:01:58.423Z,35.25
2022-10-25T07:04:02.476Z,34.15
2022-10-25T07:06:07.401Z,40.38
2022-10-25T07:08:09.784Z,36.83
2022-10-25T07:10:12.055Z,38.15
2022-10-25T07:12:13.900Z,40.42
2022-10-25T07:14:15.901Z,39.35
2022-10-25T07:16:19.462Z,50.30
2022-10-25T07:18:21.585Z,99.68
2022-10-25T07:20:23.658Z,98.05
2022-10-25T07:22:26.005Z,114.00
2022-10-25T07:24:28.136Z,141.80
2022-10-25T07:26:33.041Z,125.93
2022-10-25T07:28:35.128Z,118.38
2022-10-25T07:30:36.855Z,102.55
2022-10-25T07:32:41.665Z,92.50
2022-10-25T07:34:44.647Z,81.57
2022-10-25T07:36:46.551Z,83.05
2022-10-25T07:38:48.742Z,110.55
2022-10-25T07:40:59.803Z,115.22
2022-10-25T07:43:02.027Z,139.65
2022-10-25T07:45:04.230Z,170.40
2022-10-25T07:47:06.237Z,210.65
2022-10-25T07:49:08.203Z,221.63
2022-10-25T07:51:15.423Z,229.20
2022-10-25T07:53:17.189Z,240.73
2022-10-25T07:55:21.581Z,213.85
2022-10-25T07:57:23.578Z,205.80
2022-10-25T07:59:26.010Z,184.50
2022-10-25T08:01:29.199Z,168.63
2022-10-25T08:03:31.982Z,157.50
2022-10-25T08:05:33.711Z,156.90
2022-10-25T08:07:36.234Z,187.38
2022-10-25T08:09:38.767Z,293.38
2022-10-25T08:11:41.206Z,328.35
2022-10-25T08:13:43.272Z,305.92
2022-10-25T08:15:53.089Z,286.90
2022-10-25T08:18:02.629Z,255.55
2022-10-25T08:20:05.257Z,248.55
2022-10-25T08:22:07.070Z,226.27
2022-10-25T08:24:09.068Z,188.07
2022-10-25T08:26:11.174Z,315.40
2022-10-25T08:28:13.483Z,261.80
2022-10-25T08:30:15.496Z,250.43
2022-10-25T08:32:17.289Z,221.38
2022-10-25T08:34:19.295Z,237.23
2022-10-25T08:36:21.265Z,161.52
2022-10-25T08:38:23.456Z,147.65
2022-10-25T08:40:30.090Z,133.70
2022-10-25T08:42:34.821Z,114.93
2022-10-25T08:44:55.189Z,94.65
2022-10-25T08:47:23.152Z,88.40
2022-10-25T08:50:03.541Z,86.63
2022-10-25T08:52:17.376Z,83.40
2022-10-25T08:54:38.107Z,112.15
2022-10-25T08:56:56.480Z,157.20
2022-10-25T08:59:02.228Z,169.65
2022-10-25T09:01:14.045Z,104.38
2022-10-25T09:03:24.893Z,65.47
2022-10-25T09:05:42.350Z,52.47
2022-10-25T09:07:51.416Z,51.10
2022-10-25T09:10:19.358Z,56.10
2022-10-25T09:12:38.714Z,63.35
2022-10-25T09:14:59.157Z,51.30
2022-10-25T09:17:21.265Z,52.47
2022-10-25T09:19:34.143Z,51.97
2022-10-25T09:22:00.472Z,56.55
2022-10-25T09:24:09.884Z,50.08
2022-10-25T09:26:26.834Z,54.28
2022-10-25T09:28:44.479Z,46.03
2022-10-25T09:30:46.824Z,57.38
2022-10-25T09:33:01.505Z,55.42
2022-10-25T09:35:06.867Z,56.67
2022-10-25T09:37:25.462Z,52.45
2022-10-25T09:39:44.888Z,55.22
2022-10-25T09:41:55.163Z,50.78
2022-10-25T09:44:02.989Z,55.53
2022-10-25T09:46:20.885Z,58.85
2022-10-25T09:48:31.739Z,53.55
2022-10-25T09:50:57.799Z,56.95
2022-10-25T09:53:05.622Z,51.83
2022-10-25T09:55:35.257Z,52.10
2022-10-25T09:57:37.584Z,56.00
2022-10-25T09:59:39.692Z,55.20
2022-10-25T10:01:42.399Z,51.95
2022-10-25T10:03:47.063Z,52.08
2022-10-25T10:06:02.071Z,58.05
2022-10-25T10:08:04.361Z,55.13
2022-10-25T10:10:11.171Z,48.97
2022-10-25T10:12:31.116Z,51.17
2022-10-25T10:15:09.846Z,59.13
2022-10-25T10:17:16.433Z,53.67
2022-10-25T10:19:22.727Z,55.08
2022-10-25T10:21:25.072Z,56.55
2022-10-25T10:23:33.582Z,56.55
2022-10-25T10:25:35.779Z,63.15
2022-10-25T10:27:37.676Z,75.78
2022-10-25T10:29:57.091Z,126.07
2022-10-25T10:32:22.031Z,263.55
2022-10-25T10:34:46.002Z,191.25
2022-10-25T10:36:50.113Z,104.45
2022-10-25T10:38:52.636Z,79.88
2022-10-25T10:41:20.749Z,79.35
2022-10-25T10:43:31.178Z,83.47
2022-10-25T10:45:37.685Z,98.13
2022-10-25T10:47:48.990Z,84.15
2022-10-25T10:49:51.123Z,88.30
2022-10-25T10:51:53.132Z,91.72
2022-10-25T10:53:55.250Z,97.97
2022-10-25T10:56:00.175Z,77.47
2022-10-25T10:58:05.865Z,80.07
2022-10-25T11:00:25.320Z,86.70
2022-10-25T11:02:41.395Z,92.22
2022-10-25T11:04:51.607Z,86.28
2022-10-25T11:06:53.540Z,85.90
2022-10-25T11:09:18.139Z,76.25
2022-10-25T11:11:22.180Z,78.40
2022-10-25T11:13:25.946Z,97.07
2022-10-25T11:15:30.191Z,115.97
2022-10-25T11:17:37.988Z,133.10
2022-10-25T11:19:51.230Z,129.00
2022-10-25T11:22:02.283Z,128.13
2022-10-25T11:24:13.517Z,131.48
2022-10-25T11:26:33.461Z,129.02
2022-10-25T11:29:27.998Z,92.18
2022-10-25T11:31:56.000Z,92.65
2022-10-25T11:34:33.255Z,80.35
2022-10-25T11:37:09.774Z,76.65
2022-10-25T11:39:38.225Z,75.82
2022-10-25T11:41:54.633Z,83.20
2022-10-25T11:44:08.763Z,80.63
2022-10-25T11:46:27.163Z,85.50
2022-10-25T11:49:13.828Z,86.60
2022-10-25T11:51:18.816Z,75.65
2022-10-25T11:53:33.060Z,86.72
2022-10-25T11:55:45.349Z,97.97
2022-10-25T11:58:16.806Z,95.85
2022-10-25T12:00:52.089Z,76.43
2022-10-25T12:03:02.876Z,83.75
2022-10-25T12:05:13.974Z,71.72
2022-10-25T12:07:33.979Z,70.45
2022-10-25T12:09:53.551Z,79.57
2022-10-25T12:12:10.402Z,73.45
2022-10-25T12:14:28.479Z,63.78
2022-10-25T12:16:32.564Z,67.00
2022-10-25T12:18:45.089Z,70.45
2022-10-25T12:20:49.687Z,85.95
2022-10-25T12:22:56.114Z,77.05
2022-10-25T12:25:05.614Z,80.88
2022-10-25T12:27:11.726Z,86.45
2022-10-25T12:29:33.220Z,93.15
2022-10-25T12:31:46.072Z,91.20
2022-10-25T12:34:14.870Z,81.57
2022-10-25T12:36:45.352Z,82.68
2022-10-25T12:38:47.800Z,74.05
2022-10-25T12:40:54.608Z,71.70
2022-10-25T12:43:17.277Z,71.55
2022-10-25T12:45:37.854Z,93.68
2022-10-25T12:47:58.322Z,116.63
2022-10-25T12:50:06.190Z,93.90
2022-10-25T12:52:28.653Z,97.45
2022-10-25T12:54:49.723Z,88.82
2022-10-25T12:57:15.794Z,82.72
2022-10-25T12:59:36.220Z,84.78
2022-10-25T13:02:04.431Z,68.90
2022-10-25T13:04:23.175Z,63.50
2022-10-25T13:06:44.769Z,67.22
2022-10-25T13:08:47.351Z,63.28
2022-10-25T13:10:58.175Z,53.97
2022-10-25T13:13:05.645Z,56.55
2022-10-25T13:15:18.699Z,53.40
2022-10-25T13:17:20.642Z,47.72
2022-10-25T13:19:35.934Z,52.03
2022-10-25T13:21:53.654Z,49.58
2022-10-25T13:23:59.770Z,50.33
2022-10-25T13:26:08.484Z,53.13
2022-10-25T13:28:16.550Z,53.75
2022-10-25T13:32:25.971Z,51.65
2022-10-25T13:34:34.604Z,46.92
2022-10-25T13:40:34.105Z,46.05
2022-10-25T13:42:38.562Z,44.67
2022-10-25T13:44:58.587Z,42.30
2022-10-25T13:47:00.639Z,45.83
2022-10-25T13:49:23.319Z,41.47
2022-10-25T13:51:25.742Z,44.50
2022-10-25T13:53:38.027Z,40.78
2022-10-25T13:55:58.424Z,42.53
2022-10-25T13:58:01.487Z,42.17
2022-10-25T14:00:11.813Z,42.30
2022-10-25T14:02:20.001Z,43.05
2022-10-25T14:04:42.128Z,43.15
2022-10-25T14:06:43.982Z,47.10
2022-10-25T14:08:55.904Z,42.67
2022-10-25T14:11:07.867Z,49.40
2022-10-25T14:13:19.518Z,44.00
2022-10-25T14:15:48.819Z,42.90
2022-10-25T14:17:51.086Z,39.72
2022-10-25T14:20:02.946Z,42.22
2022-10-25T14:22:13.886Z,49.25
2022-10-25T14:24:17.423Z,51.85
2022-10-25T14:26:21.399Z,52.75
2022-10-25T14:28:31.668Z,53.13
2022-10-25T14:30:52.980Z,51.50
2022-10-25T14:33:01.235Z,55.47
2022-10-25T14:35:03.440Z,48.67
2022-10-25T14:37:05.701Z,47.35
2022-10-25T14:39:20.170Z,49.00
2022-10-25T14:41:26.893Z,42.65
2022-10-25T14:43:32.136Z,52.35
2022-10-25T14:45:34.316Z,43.78
2022-10-25T14:47:36.600Z,42.38
2022-10-25T14:49:39.021Z,44.53
2022-10-25T14:51:43.462Z,39.47
2022-10-25T14:53:56.110Z,45.80
2022-10-25T14:56:04.053Z,44.70
2022-10-25T14:58:12.024Z,44.45
2022-10-25T15:00:19.830Z,40.25
2022-10-25T15:02:33.152Z,43.13
2022-10-25T15:04:40.808Z,43.25
2022-10-25T15:06:43.355Z,39.42
2022-10-25T15:08:50.648Z,42.35
2022-10-25T15:11:09.567Z,48.35
2022-10-25T15:13:21.209Z,45.83
2022-10-25T15:15:44.247Z,47.42
2022-10-25T15:17:53.086Z,50.90
2022-10-25T15:20:03.274Z,63.85
2022-10-25T15:22:10.747Z,54.83
2022-10-25T15:24:21.022Z,51.28
2022-10-25T15:26:33.550Z,56.55
2022-10-25T15:28:54.823Z,52.75
2022-10-25T15:31:02.437Z,45.72
2022-10-25T15:33:10.287Z,45.55
2022-10-25T15:35:24.401Z,52.22
2022-10-25T15:37:28.184Z,44.65
2022-10-25T15:39:31.491Z,44.00
2022-10-25T15:41:35.482Z,47.72
2022-10-25T15:43:37.445Z,43.35
2022-10-25T15:45:40.468Z,41.33
2022-10-25T15:47:42.778Z,42.67
2022-10-25T15:49:44.824Z,42.80
2022-10-25T15:51:47.170Z,45.33
2022-10-25T15:53:49.565Z,39.08
2022-10-25T15:55:52.652Z,44.75
2022-10-25T15:57:55.413Z,48.10
2022-10-25T15:59:57.487Z,45.67
2022-10-25T16:01:59.964Z,46.20
2022-10-25T16:04:01.970Z,45.83
2022-10-25T16:06:03.883Z,52.22
2022-10-25T16:08:05.925Z,57.15
2022-10-25T16:10:08.428Z,47.53
2022-10-25T16:12:32.856Z,42.80
2022-10-25T16:14:38.116Z,39.90
2022-10-25T16:16:41.249Z,48.20
2022-10-25T16:18:43.331Z,39.20
2022-10-25T16:20:45.530Z,39.20
2022-10-25T16:22:48.153Z,53.55
2022-10-25T16:24:50.715Z,53.75
2022-10-25T16:26:52.960Z,50.83
2022-10-25T16:28:55.078Z,48.97
2022-10-25T16:30:56.983Z,51.33
2022-10-25T16:32:59.072Z,46.28
2022-10-25T16:35:01.133Z,49.88
2022-10-25T16:37:05.499Z,48.03
2022-10-25T16:39:12.739Z,42.28
2022-10-25T16:41:29.711Z,46.83
2022-10-25T16:43:31.746Z,42.22
2022-10-25T16:45:39.797Z,43.78
2022-10-25T16:47:41.817Z,37.10
2022-10-25T16:49:43.924Z,34.55
2022-10-25T16:51:45.962Z,36.47
2022-10-25T16:53:48.713Z,36.63
2022-10-25T16:55:50.866Z,31.35
2022-10-25T16:57:52.675Z,30.05
2022-10-25T16:59:57.063Z,33.22
2022-10-25T17:01:59.257Z,28.75
2022-10-25T17:04:02.301Z,41.85
2022-10-25T17:06:22.243Z,42.75
2022-10-25T17:08:28.206Z,39.05
2022-10-25T17:10:30.914Z,39.20
2022-10-25T17:12:32.943Z,30.25
2022-10-25T17:14:35.442Z,23.85
2022-10-25T17:16:41.778Z,26.92
2022-10-25T17:18:43.916Z,27.05
2022-10-25T17:20:46.031Z,27.60
2022-10-25T17:22:49.055Z,26.25
2022-10-25T17:24:51.270Z,22.83
2022-10-25T17:26:53.378Z,26.83
2022-10-25T17:28:55.531Z,26.27
2022-10-25T17:30:58.263Z,26.27
2022-10-25T17:33:00.771Z,26.48
2022-10-25T17:39:03.249Z,25.98
2022-10-25T17:41:05.555Z,29.02
2022-10-25T17:43:07.877Z,35.88
2022-10-25T17:45:10.539Z,30.95
2022-10-25T17:47:13.039Z,32.28
2022-10-25T17:49:15.482Z,32.58
2022-10-25T17:51:17.540Z,29.60
2022-10-25T17:53:19.573Z,30.73
2022-10-25T17:55:21.574Z,31.80
2022-10-25T17:57:23.661Z,32.88
2022-10-25T17:59:27.813Z,33.25
2022-10-25T18:01:32.118Z,33.92
2022-10-25T18:03:34.096Z,39.33
2022-10-25T18:05:39.581Z,40.60
2022-10-25T18:07:41.562Z,35.03
2022-10-25T18:09:43.745Z,33.47
2022-10-25T18:11:46.637Z,29.45
2022-10-25T18:13:59.291Z,30.50
2022-10-25T18:16:01.618Z,37.05
2022-10-25T18:18:03.831Z,42.10
2022-10-25T18:20:06.647Z,39.72
2022-10-25T18:22:08.578Z,39.58
2022-10-25T18:24:13.025Z,42.65
2022-10-25T18:26:18.571Z,48.28
2022-10-25T18:28:20.884Z,47.58
2022-10-25T18:30:23.039Z,52.47
2022-10-25T18:32:32.097Z,51.20
2022-10-25T18:34:35.862Z,51.97
2022-10-25T18:36:37.654Z,46.58
2022-10-25T18:38:39.713Z,53.25
2022-10-25T18:40:41.566Z,53.03
2022-10-25T18:42:58.894Z,47.53
2022-10-25T18:45:01.360Z,51.15
2022-10-25T18:47:03.240Z,43.15
2022-10-25T18:53:06.327Z,43.30
2022-10-25T18:55:08.497Z,39.05
2022-10-25T18:57:10.717Z,33.70
2022-10-25T18:59:12.601Z,44.83
2022-10-25T19:01:22.869Z,43.22
2022-10-25T19:03:25.072Z,38.33
2022-10-25T19:05:29.243Z,45.08
2022-10-25T19:07:31.278Z,41.30
2022-10-25T19:09:33.155Z,44.83
2022-10-25T19:11:35.366Z,40.58
2022-10-25T19:13:37.959Z,41.45
2022-10-25T19:15:40.000Z,42.47
2022-10-25T19:17:42.018Z,39.63
2022-10-25T19:19:43.962Z,41.38
2022-10-25T19:21:46.677Z,38.88
2022-10-25T19:23:48.785Z,34.17
2022-10-25T19:25:51.182Z,32.70
2022-10-25T19:27:53.261Z,30.95
2022-10-25T19:29:57.625Z,27.52
2022-10-25T19:31:59.589Z,31.17
2022-10-25T19:34:03.454Z,30.08
2022-10-25T19:36:09.625Z,26.42
2022-10-25T19:38:12.176Z,26.77
2022-10-25T19:40:14.560Z,26.02
2022-10-25T19:42:17.097Z,24.45
2022-10-25T19:44:19.091Z,28.73
2022-10-25T19:46:21.768Z,26.08
2022-10-25T19:48:24.618Z,22.77
2022-10-25T19:50:28.984Z,24.98
2022-10-25T19:52:31.483Z,24.67
2022-10-25T19:54:35.940Z,27.98
2022-10-25T19:56:39.330Z,29.13
2022-10-25T19:58:41.768Z,25.98
2022-10-25T20:00:43.850Z,26.42
2022-10-25T20:02:45.771Z,27.58
2022-10-25T20:04:53.357Z,24.92
2022-10-25T20:06:55.501Z,22.65
2022-10-25T20:08:59.000Z,22.55
2022-10-25T20:11:01.976Z,23.00
2022-10-25T20:13:04.878Z,19.27
2022-10-25T20:15:07.752Z,22.20
2022-10-25T20:17:09.942Z,21.63
2022-10-25T20:19:14.184Z,22.75
2022-10-25T20:21:19.607Z,20.33
2022-10-25T20:23:21.931Z,19.50
2022-10-25T20:25:25.295Z,29.48
2022-10-25T20:27:27.361Z,23.83
2022-10-25T20:29:29.382Z,20.33
2022-10-25T20:31:34.124Z,25.67
2022-10-25T20:33:36.090Z,21.35
2022-10-25T20:35:40.484Z,21.50
2022-10-25T20:37:42.480Z,23.77
2022-10-25T20:39:44.537Z,25.40
2022-10-25T20:41:46.695Z,25.67
2022-10-25T20:43:51.715Z,27.50
2022-10-25T20:45:53.910Z,31.45
2022-10-25T20:47:59.833Z,35.78
2022-10-25T20:50:02.318Z,40.97
2022-10-25T20:52:04.733Z,46.95
2022-10-25T20:54:09.956Z,53.90
2022-10-25T20:56:13.842Z,49.92
2022-10-25T20:58:17.428Z,43.78
2022-10-25T21:00:20.596Z,47.75
2022-10-25T21:02:22.989Z,35.45
2022-10-25T21:04:30.663Z,36.47
2022-10-25T21:06:44.248Z,63.88
2022-10-25T21:08:46.220Z,67.28
2022-10-25T21:10:56.166Z,115.40
2022-10-25T21:12:59.097Z,101.55
2022-10-25T21:15:01.061Z,98.13
2022-10-25T21:17:03.090Z,80.60
2022-10-25T21:19:05.090Z,61.83
2022-10-25T21:21:09.946Z,46.85
2022-10-25T21:23:12.424Z,36.05
2022-10-25T21:25:15.144Z,33.15
2022-10-25T21:27:20.168Z,33.30
2022-10-25T21:29:22.705Z,31.75
2022-10-25T21:31:24.792Z,31.92
2022-10-25T21:33:26.757Z,32.97
2022-10-25T21:35:28.646Z,36.30
2022-10-25T21:37:30.594Z,41.15
2022-10-25T21:39:33.239Z,44.00
2022-10-25T21:41:35.590Z,43.13
2022-10-25T21:43:43.082Z,48.17
2022-10-25T21:45:50.397Z,38.05
2022-10-25T21:47:52.988Z,36.92
2022-10-25T21:49:55.302Z,38.85
2022-10-25T21:51:57.627Z,36.90
2022-10-25T21:54:01.454Z,30.63
2022-10-25T21:56:18.060Z,36.80
2022-10-25T21:58:22.483Z,31.08
2022-10-25T22:00:24.452Z,30.48
2022-10-25T22:02:26.682Z,30.98
2022-10-25T22:04:28.684Z,34.28
2022-10-25T22:06:30.807Z,32.47
2022-10-25T22:08:32.988Z,32.63
2022-10-25T22:10:34.916Z,34.33
2022-10-25T22:12:36.915Z,31.08
2022-10-25T22:14:38.820Z,32.38
2022-10-25T22:16:41.060Z,36.83
2022-10-25T22:18:48.079Z,33.80
2022-10-25T22:21:01.604Z,31.88
2022-10-25T22:23:03.705Z,30.00
2022-10-25T22:25:08.905Z,29.63
2022-10-25T22:27:10.976Z,30.08
2022-10-25T22:29:15.111Z,26.23
2022-10-25T22:31:17.943Z,31.77
2022-10-25T22:33:19.894Z,35.25
2022-10-25T22:35:21.926Z,30.23
2022-10-25T22:37:23.942Z,30.92
2022-10-25T22:39:26.030Z,32.65
2022-10-25T22:41:29.739Z,30.52
2022-10-25T22:43:37.255Z,31.15
2022-10-25T22:45:42.065Z,28.98
2022-10-25T22:47:47.555Z,26.35
2022-10-25T22:49:49.859Z,25.30
2022-10-25T22:51:51.869Z,23.33
2022-10-25T22:53:54.153Z,23.92
2022-10-25T22:55:58.728Z,22.38
2022-10-25T22:58:00.760Z,23.52
2022-10-25T23:00:03.238Z,28.00
2022-10-25T23:02:05.391Z,23.27
2022-10-25T23:04:12.664Z,24.25
2022-10-25T23:06:17.200Z,26.70
2022-10-25T23:08:19.164Z,25.45
2022-10-25T23:10:21.135Z,22.08
2022-10-25T23:12:23.481Z,20.73
2022-10-25T23:14:25.659Z,25.02
2022-10-25T23:16:28.686Z,22.70
2022-10-25T23:18:30.877Z,18.95
2022-10-25T23:20:33.219Z,21.25
2022-10-25T23:22:35.353Z,22.63
2022-10-25T23:24:37.404Z,23.77
2022-10-25T23:26:39.826Z,24.80
2022-10-25T23:28:41.798Z,23.20
2022-10-25T23:30:44.387Z,23.55
2022-10-25T23:32:46.491Z,22.13
2022-10-25T23:34:48.908Z,23.02
2022-10-25T23:36:51.452Z,26.63
2022-10-25T23:38:54.946Z,23.90
2022-10-25T23:40:57.131Z,25.38
2022-10-25T23:42:59.749Z,20.65
2022-10-25T23:45:03.373Z,20.88
2022-10-25T23:47:05.534Z,21.90
2022-10-25T23:49:07.724Z,21.77
2022-10-25T23:51:12.430Z,22.50
2022-10-25T23:53:14.418Z,22.83
2022-10-25T23:55:16.462Z,20.25
2022-10-25T23:57:19.192Z,23.10
2022-10-25T23:59:21.379Z,20.88
